createdAt,value
2023-02-16T00:01:05.005Z,61.20
2023-02-16T00:03:34.464Z,61.52
2023-02-16T00:06:01.257Z,61.51
2023-02-16T00:08:32.920Z,61.19
2023-02-16T00:11:20.745Z,61.98
2023-02-16T00:13:53.107Z,61.73
2023-02-16T00:16:26.495Z,61.87
2023-02-16T00:18:56.066Z,61.73
2023-02-16T00:21:28.042Z,61.80
2023-02-16T00:24:04.719Z,61.47
2023-02-16T00:26:36.760Z,61.32
2023-02-16T00:29:33.039Z,61.29
2023-02-16T00:32:08.655Z,61.24
2023-02-16T00:34:40.035Z,61.64
2023-02-16T00:37:14.309Z,61.96
2023-02-16T00:39:48.541Z,61.81
2023-02-16T00:42:24.431Z,61.76
2023-02-16T00:44:58.472Z,62.04
2023-02-16T00:47:43.087Z,61.80
2023-02-16T00:50:42.374Z,62.04
2023-02-16T00:53:10.829Z,62.30
2023-02-16T00:55:46.506Z,62.04
2023-02-16T00:58:31.805Z,62.28
2023-02-16T01:01:19.028Z,62.13
2023-02-16T01:03:50.262Z,61.60
2023-02-16T01:06:38.253Z,61.90
2023-02-16T01:09:52.022Z,62.37
2023-02-16T01:15:34.294Z,62.85
2023-02-16T01:18:06.482Z,62.72
2023-02-16T01:20:45.028Z,62.64
2023-02-16T01:23:32.620Z,62.61
2023-02-16T01:26:08.281Z,62.69
2023-02-16T01:28:45.142Z,63.22
2023-02-16T01:31:28.319Z,63.01
2023-02-16T01:34:16.136Z,62.67
2023-02-16T01:36:48.242Z,63.16
2023-02-16T01:39:23.127Z,62.49
2023-02-16T01:42:47.418Z,62.50
2023-02-16T01:45:58.176Z,62.69
2023-02-16T01:52:10.165Z,63.79
2023-02-16T01:55:19.089Z,64.21
2023-02-16T01:58:34.466Z,63.97
2023-02-16T02:01:01.319Z,64.04
2023-02-16T02:04:04.052Z,63.19
2023-02-16T02:06:43.495Z,63.44
2023-02-16T02:09:28.191Z,63.61
2023-02-16T02:12:24.087Z,63.41
2023-02-16T02:14:51.788Z,62.92
2023-02-16T02:17:24.532Z,63.32
2023-02-16T02:20:02.147Z,62.87
2023-02-16T02:23:09.208Z,63.07
2023-02-16T02:26:05.200Z,63.38
2023-02-16T02:29:12.276Z,63.15
2023-02-16T02:32:02.616Z,63.29
2023-02-16T02:34:35.548Z,63.57
2023-02-16T02:37:33.586Z,64.03
2023-02-16T02:40:11.389Z,64.27
2023-02-16T02:43:03.176Z,64.25
2023-02-16T02:45:34.961Z,64.07
2023-02-16T02:48:02.424Z,64.41
2023-02-16T02:51:07.729Z,64.06
2023-02-16T02:53:39.567Z,64.18
2023-02-16T02:56:28.640Z,63.93
2023-02-16T02:59:17.173Z,63.86
2023-02-16T03:01:49.165Z,63.96
2023-02-16T03:04:21.459Z,63.75
2023-02-16T03:06:54.368Z,63.56
2023-02-16T03:09:23.956Z,63.14
2023-02-16T03:12:12.254Z,63.21
2023-02-16T03:15:04.617Z,63.39
2023-02-16T03:17:56.127Z,63.27
2023-02-16T03:20:41.579Z,63.61
2023-02-16T03:23:31.650Z,63.54
2023-02-16T03:26:19.787Z,64.04
2023-02-16T03:29:06.397Z,64.07
2023-02-16T03:31:36.436Z,64.20
2023-02-16T03:34:03.329Z,64.16
2023-02-16T03:36:32.190Z,64.78
2023-02-16T03:39:02.284Z,64.73
2023-02-16T03:41:33.032Z,64.60
2023-02-16T03:44:00.238Z,64.34
2023-02-16T03:46:27.219Z,64.26
2023-02-16T03:48:53.921Z,64.15
2023-02-16T03:51:22.608Z,64.41
2023-02-16T03:53:57.813Z,64.04
2023-02-16T03:56:32.130Z,64.71
2023-02-16T03:59:03.691Z,64.51
2023-02-16T04:01:33.058Z,64.71
2023-02-16T04:04:02.463Z,64.67
2023-02-16T04:06:32.282Z,64.69
2023-02-16T04:09:02.647Z,64.38
2023-02-16T04:11:48.158Z,64.38
2023-02-16T04:14:18.111Z,64.25
2023-02-16T04:19:51.862Z,63.88
2023-02-16T04:22:21.547Z,63.62
2023-02-16T04:24:54.136Z,64.50
2023-02-16T04:27:24.760Z,64.78
2023-02-16T04:29:53.224Z,65.42
2023-02-16T04:32:27.085Z,65.43
2023-02-16T04:34:59.624Z,65.59
2023-02-16T04:37:26.947Z,65.52
2023-02-16T04:39:54.166Z,65.01
2023-02-16T04:42:21.483Z,65.17
2023-02-16T04:44:48.536Z,64.96
2023-02-16T04:47:16.195Z,65.07
2023-02-16T04:49:43.384Z,65.17
2023-02-16T04:52:13.639Z,64.79
2023-02-16T04:54:45.956Z,64.65
2023-02-16T04:57:16.447Z,64.67
2023-02-16T04:59:44.115Z,64.52
2023-02-16T05:02:14.370Z,64.68
2023-02-16T05:04:45.236Z,64.40
2023-02-16T05:07:15.549Z,64.75
2023-02-16T05:09:43.063Z,64.76
2023-02-16T05:12:33.297Z,64.37
2023-02-16T05:15:00.548Z,64.35
2023-02-16T05:17:28.313Z,64.41
2023-02-16T05:19:59.642Z,64.36
2023-02-16T05:22:29.114Z,64.47
2023-02-16T05:24:56.347Z,64.67
2023-02-16T05:27:28.852Z,64.52
2023-02-16T05:29:59.543Z,64.70
2023-02-16T05:32:29.857Z,64.50
2023-02-16T05:34:57.038Z,65.02
2023-02-16T05:37:26.333Z,64.77
2023-02-16T05:39:54.821Z,64.86
2023-02-16T05:42:34.255Z,64.92
2023-02-16T05:45:22.953Z,64.75
2023-02-16T05:47:56.319Z,64.35
2023-02-16T05:50:28.371Z,64.38
2023-02-16T05:53:08.825Z,64.91
2023-02-16T05:55:59.022Z,64.66
2023-02-16T05:58:28.916Z,64.40
2023-02-16T06:00:56.005Z,64.37
2023-02-16T06:03:24.585Z,64.25
2023-02-16T06:05:56.820Z,64.94
2023-02-16T06:08:24.424Z,64.78
2023-02-16T06:10:53.431Z,65.21
2023-02-16T06:13:21.805Z,65.17
2023-02-16T06:15:53.712Z,65.12
2023-02-16T06:18:24.085Z,65.02
2023-02-16T06:20:51.562Z,64.64
2023-02-16T06:23:33.157Z,65.30
2023-02-16T06:26:00.310Z,64.77
2023-02-16T06:28:30.526Z,64.65
2023-02-16T06:31:00.474Z,64.78
2023-02-16T06:33:32.553Z,64.61
2023-02-16T06:35:59.318Z,64.38
2023-02-16T06:38:26.050Z,64.57
2023-02-16T06:40:55.837Z,64.86
2023-02-16T06:43:22.759Z,64.50
2023-02-16T06:45:52.438Z,64.22
2023-02-16T06:48:23.847Z,64.20
2023-02-16T06:50:51.040Z,64.15
2023-02-16T06:53:18.375Z,64.12
2023-02-16T06:55:45.252Z,64.15
2023-02-16T06:58:14.566Z,63.70
2023-02-16T07:00:41.604Z,63.78
2023-02-16T07:03:08.451Z,63.77
2023-02-16T07:05:38.146Z,63.63
2023-02-16T07:08:04.954Z,63.34
2023-02-16T07:10:47.380Z,63.14
2023-02-16T07:13:15.621Z,63.25
2023-02-16T07:15:42.429Z,63.49
2023-02-16T07:18:09.355Z,63.26
2023-02-16T07:20:36.292Z,63.29
2023-02-16T07:23:03.167Z,63.25
2023-02-16T07:25:30.111Z,63.54
2023-02-16T07:27:56.970Z,63.39
2023-02-16T07:30:28.402Z,62.75
2023-02-16T07:32:55.257Z,62.60
2023-02-16T07:35:25.502Z,62.80
2023-02-16T07:37:52.676Z,62.10
2023-02-16T07:40:22.309Z,62.42
2023-02-16T07:42:51.277Z,62.63
2023-02-16T07:45:18.162Z,62.38
2023-02-16T07:47:47.629Z,62.26
2023-02-16T07:50:14.471Z,62.38
2023-02-16T07:52:43.546Z,61.59
2023-02-16T07:55:11.523Z,62.30
2023-02-16T07:57:39.343Z,62.28
2023-02-16T08:00:07.820Z,62.43
2023-02-16T08:02:41.327Z,62.05
2023-02-16T08:05:08.554Z,62.04
2023-02-16T08:07:42.612Z,61.76
2023-02-16T08:10:09.821Z,61.58
2023-02-16T08:12:39.203Z,61.42
2023-02-16T08:15:06.510Z,61.09
2023-02-16T08:17:38.256Z,61.39
2023-02-16T08:20:10.063Z,60.17
2023-02-16T08:22:37.655Z,60.59
2023-02-16T08:25:07.168Z,60.39
2023-02-16T08:27:33.929Z,60.51
2023-02-16T08:30:06.068Z,59.94
2023-02-16T08:32:35.969Z,60.34
2023-02-16T08:35:05.165Z,60.50
2023-02-16T08:37:31.881Z,59.89
2023-02-16T08:40:04.676Z,60.09
2023-02-16T08:42:33.794Z,60.16
2023-02-16T08:45:00.556Z,60.22
2023-02-16T08:47:27.383Z,59.78
2023-02-16T08:50:15.286Z,59.94
2023-02-16T08:52:47.635Z,59.65
2023-02-16T08:55:17.491Z,59.65
2023-02-16T08:57:44.284Z,60.00
2023-02-16T09:00:30.139Z,60.17
2023-02-16T09:02:59.163Z,59.20
2023-02-16T09:05:31.160Z,58.83
2023-02-16T09:08:00.419Z,58.89
2023-02-16T09:10:34.964Z,57.57
2023-02-16T09:13:07.009Z,58.13
2023-02-16T09:15:33.866Z,58.79
2023-02-16T09:18:00.888Z,58.32
2023-02-16T09:20:27.713Z,59.05
2023-02-16T09:22:57.227Z,58.84
2023-02-16T09:25:26.196Z,57.17
2023-02-16T09:27:53.144Z,57.52
2023-02-16T09:30:22.756Z,57.57
2023-02-16T09:32:49.624Z,56.28
2023-02-16T09:35:17.672Z,56.32
2023-02-16T09:37:47.337Z,56.16
2023-02-16T09:40:16.986Z,55.82
2023-02-16T09:43:00.451Z,55.23
2023-02-16T09:45:27.566Z,55.77
2023-02-16T09:47:59.492Z,55.39
2023-02-16T09:50:52.968Z,55.65
2023-02-16T09:53:39.699Z,56.58
2023-02-16T09:56:18.724Z,54.90
2023-02-16T09:58:49.890Z,55.34
2023-02-16T10:01:17.864Z,55.23
2023-02-16T10:04:25.677Z,54.28
2023-02-16T10:07:01.907Z,53.43
2023-02-16T10:09:31.771Z,53.47
2023-02-16T10:12:09.966Z,53.17
2023-02-16T10:14:55.827Z,53.10
2023-02-16T10:17:39.440Z,53.03
2023-02-16T10:20:39.790Z,52.78
2023-02-16T10:23:43.476Z,53.22
2023-02-16T10:26:34.460Z,52.31
2023-02-16T10:29:08.921Z,52.15
2023-02-16T10:32:14.941Z,51.63
2023-02-16T10:34:50.404Z,51.11
2023-02-16T10:37:54.131Z,50.49
2023-02-16T10:40:30.792Z,50.16
2023-02-16T10:43:14.359Z,49.81
2023-02-16T10:46:05.994Z,49.28
2023-02-16T10:48:35.572Z,48.34
2023-02-16T10:51:12.036Z,48.49
2023-02-16T10:53:43.254Z,48.30
2023-02-16T10:56:41.611Z,46.53
2023-02-16T10:59:16.537Z,47.35
2023-02-16T11:01:50.234Z,46.58
2023-02-16T11:04:38.029Z,45.15
2023-02-16T11:07:18.506Z,45.89
2023-02-16T11:09:58.234Z,45.30
2023-02-16T11:12:37.557Z,44.87
2023-02-16T11:15:15.689Z,45.24
2023-02-16T11:18:05.632Z,46.24
2023-02-16T11:20:46.649Z,46.32
2023-02-16T11:23:35.263Z,45.93
2023-02-16T11:26:14.747Z,46.65
2023-02-16T11:28:47.993Z,45.33
2023-02-16T11:31:42.420Z,44.90
2023-02-16T11:34:30.474Z,44.55
2023-02-16T11:37:13.675Z,44.17
2023-02-16T11:39:52.813Z,45.74
2023-02-16T11:43:00.197Z,43.03
2023-02-16T11:45:35.255Z,44.26
2023-02-16T11:48:27.925Z,43.08
2023-02-16T11:50:58.359Z,43.62
2023-02-16T11:53:33.756Z,43.07
2023-02-16T11:56:29.220Z,41.47
2023-02-16T11:59:22.841Z,42.27
2023-02-16T12:02:07.854Z,41.56
2023-02-16T12:05:17.655Z,42.80
2023-02-16T12:08:09.962Z,42.25
2023-02-16T12:11:10.673Z,42.08
2023-02-16T12:14:14.965Z,39.59
2023-02-16T12:17:06.215Z,40.16
2023-02-16T12:20:17.893Z,41.22
2023-02-16T12:22:49.446Z,41.28
2023-02-16T12:26:06.856Z,39.32
2023-02-16T12:29:07.248Z,38.43
2023-02-16T12:31:42.976Z,37.96
2023-02-16T12:34:50.456Z,37.27
2023-02-16T12:37:36.091Z,37.06
2023-02-16T12:40:41.217Z,33.63
2023-02-16T12:43:34.232Z,35.69
2023-02-16T12:46:19.924Z,35.82
2023-02-16T12:48:52.162Z,35.71
2023-02-16T12:51:22.639Z,36.19
2023-02-16T12:54:10.367Z,36.43
2023-02-16T12:56:50.303Z,35.09
2023-02-16T12:59:56.822Z,35.23
2023-02-16T13:02:37.016Z,35.93
2023-02-16T13:05:16.988Z,35.57
2023-02-16T13:07:49.025Z,37.79
2023-02-16T13:10:36.878Z,36.62
2023-02-16T13:13:12.990Z,35.71
2023-02-16T13:15:45.320Z,37.95
2023-02-16T13:18:15.461Z,35.73
2023-02-16T13:20:50.085Z,37.83
2023-02-16T13:23:43.858Z,36.54
2023-02-16T13:26:26.515Z,36.71
2023-02-16T13:29:33.193Z,35.73
2023-02-16T13:32:36.379Z,36.44
2023-02-16T13:35:16.466Z,35.42
2023-02-16T13:37:58.407Z,36.00
2023-02-16T13:40:35.140Z,35.29
2023-02-16T13:43:16.655Z,35.94
2023-02-16T13:45:49.090Z,35.20
2023-02-16T13:48:30.107Z,35.42
2023-02-16T13:51:05.805Z,34.23
2023-02-16T13:53:38.665Z,36.18
2023-02-16T13:56:24.357Z,34.75
2023-02-16T13:58:53.039Z,34.82
2023-02-16T14:01:32.187Z,33.60
2023-02-16T14:05:37.745Z,33.40
2023-02-16T14:16:12.982Z,33.69
2023-02-16T14:19:18.461Z,33.31
2023-02-16T14:21:54.295Z,34.43
2023-02-16T14:24:39.159Z,34.51
2023-02-16T14:27:09.782Z,34.88
2023-02-16T14:30:00.602Z,34.93
2023-02-16T14:32:38.696Z,34.54
2023-02-16T14:35:32.433Z,33.93
2023-02-16T14:38:19.123Z,33.17
2023-02-16T14:40:58.414Z,33.64
2023-02-16T14:43:35.618Z,32.92
2023-02-16T14:46:18.373Z,33.26
2023-02-16T14:49:18.648Z,32.43
2023-02-16T14:51:55.932Z,32.91
2023-02-16T14:54:44.899Z,32.18
2023-02-16T14:57:52.907Z,31.84
2023-02-16T15:00:46.311Z,33.08
2023-02-16T15:03:32.422Z,33.84
2023-02-16T15:06:05.082Z,33.66
2023-02-16T15:08:37.002Z,34.92
2023-02-16T15:11:22.161Z,35.14
2023-02-16T15:13:56.673Z,35.02
2023-02-16T15:16:29.829Z,35.42
2023-02-16T15:19:05.110Z,36.31
2023-02-16T15:21:35.093Z,36.56
2023-02-16T15:24:27.323Z,37.19
2023-02-16T15:27:01.776Z,37.35
2023-02-16T15:29:34.804Z,37.73
2023-02-16T15:32:14.613Z,38.66
2023-02-16T15:34:44.837Z,38.40
2023-02-16T15:37:43.668Z,39.70
2023-02-16T15:40:38.339Z,39.22
2023-02-16T15:43:35.683Z,40.04
2023-02-16T15:46:35.874Z,39.64
2023-02-16T15:49:22.797Z,40.88
2023-02-16T15:51:52.844Z,41.12
2023-02-16T15:54:32.276Z,41.13
2023-02-16T15:57:19.518Z,41.22
2023-02-16T15:59:55.902Z,41.25
2023-02-16T16:02:41.247Z,42.55
2023-02-16T16:05:30.152Z,43.03
2023-02-16T16:07:59.530Z,43.92
2023-02-16T16:10:42.276Z,43.54
2023-02-16T16:13:28.217Z,44.51
2023-02-16T16:16:02.122Z,45.43
2023-02-16T16:18:44.706Z,45.90
2023-02-16T16:21:25.314Z,46.93
2023-02-16T16:24:03.285Z,46.20
2023-02-16T16:26:39.033Z,45.67
2023-02-16T16:29:39.361Z,46.81
2023-02-16T16:32:31.397Z,47.01
2023-02-16T16:38:10.779Z,47.71
2023-02-16T16:40:42.532Z,47.47
2023-02-16T16:43:23.552Z,47.19
2023-02-16T16:46:11.754Z,48.34
2023-02-16T16:49:06.414Z,49.19
2023-02-16T16:51:43.726Z,47.76
2023-02-16T16:54:39.053Z,49.07
2023-02-16T16:57:17.711Z,49.55
2023-02-16T16:59:50.604Z,48.63
2023-02-16T17:02:24.699Z,49.24
2023-02-16T17:05:10.602Z,48.43
2023-02-16T17:07:41.602Z,49.17
2023-02-16T17:10:11.858Z,49.08
2023-02-16T17:15:57.374Z,50.00
2023-02-16T17:18:27.587Z,49.26
2023-02-16T17:25:30.968Z,50.10
2023-02-16T17:27:58.889Z,50.17
2023-02-16T17:30:35.518Z,50.36
2023-02-16T17:33:08.488Z,51.69
2023-02-16T17:35:37.693Z,51.20
2023-02-16T17:38:18.808Z,52.71
2023-02-16T17:40:55.247Z,51.48
2023-02-16T17:43:30.685Z,52.43
2023-02-16T17:46:01.218Z,53.01
2023-02-16T17:48:31.542Z,52.28
2023-02-16T17:51:09.404Z,53.82
2023-02-16T17:53:52.072Z,53.09
2023-02-16T17:56:23.439Z,52.72
2023-02-16T17:58:55.644Z,53.70
2023-02-16T18:01:22.824Z,54.33
2023-02-16T18:03:50.357Z,54.06
2023-02-16T18:06:18.723Z,54.15
2023-02-16T18:08:57.308Z,54.29
2023-02-16T18:11:27.334Z,53.96
2023-02-16T18:14:04.788Z,53.90
2023-02-16T18:16:34.327Z,54.36
2023-02-16T18:19:11.614Z,53.66
2023-02-16T18:21:43.401Z,53.64
2023-02-16T18:24:15.063Z,53.63
2023-02-16T18:26:45.200Z,53.84
2023-02-16T18:29:23.711Z,54.07
2023-02-16T18:31:58.359Z,54.16
2023-02-16T18:34:30.664Z,54.23
2023-02-16T18:37:08.836Z,53.95
2023-02-16T18:40:05.284Z,54.42
2023-02-16T18:42:42.545Z,54.29
2023-02-16T18:45:10.613Z,54.47
2023-02-16T18:47:42.782Z,54.63
2023-02-16T18:50:22.755Z,55.07
2023-02-16T18:52:52.466Z,55.12
2023-02-16T18:55:35.339Z,56.14
2023-02-16T18:58:11.370Z,54.91
2023-02-16T19:00:40.976Z,55.45
2023-02-16T19:03:18.063Z,55.02
2023-02-16T19:05:48.149Z,55.38
2023-02-16T19:08:17.775Z,55.94
2023-02-16T19:10:45.139Z,56.24
2023-02-16T19:13:15.405Z,55.85
2023-02-16T19:15:44.859Z,56.19
2023-02-16T19:18:27.640Z,56.54
2023-02-16T19:21:00.816Z,56.28
2023-02-16T19:23:27.955Z,56.05
2023-02-16T19:25:56.321Z,56.04
2023-02-16T19:28:26.700Z,56.11
2023-02-16T19:30:56.984Z,56.71
2023-02-16T19:33:29.719Z,56.11
2023-02-16T19:36:09.055Z,55.99
2023-02-16T19:38:36.797Z,56.38
2023-02-16T19:41:21.711Z,57.65
2023-02-16T19:43:49.304Z,56.94
2023-02-16T19:46:20.087Z,57.03
2023-02-16T19:48:56.104Z,57.14
2023-02-16T19:51:34.660Z,57.54
2023-02-16T19:54:04.756Z,57.42
2023-02-16T19:56:41.092Z,57.14
2023-02-16T19:59:16.582Z,57.83
2023-02-16T20:01:50.007Z,58.09
2023-02-16T20:04:17.403Z,58.02
2023-02-16T20:06:47.854Z,57.94
2023-02-16T20:09:17.685Z,58.26
2023-02-16T20:11:49.302Z,58.49
2023-02-16T20:14:20.693Z,59.39
2023-02-16T20:16:54.143Z,58.74
2023-02-16T20:19:23.987Z,58.91
2023-02-16T20:21:53.906Z,59.20
2023-02-16T20:24:26.989Z,59.14
2023-02-16T20:26:59.927Z,59.36
2023-02-16T20:29:41.383Z,59.43
2023-02-16T20:32:24.007Z,59.92
2023-02-16T20:34:58.417Z,59.36
2023-02-16T20:37:36.004Z,58.85
2023-02-16T20:40:17.312Z,59.26
2023-02-16T20:42:57.560Z,59.32
2023-02-16T20:45:29.499Z,59.82
2023-02-16T20:48:02.646Z,59.93
2023-02-16T20:50:39.678Z,59.97
2023-02-16T20:53:12.181Z,60.04
2023-02-16T20:55:47.175Z,59.38
2023-02-16T20:58:24.462Z,59.23
2023-02-16T21:00:59.402Z,58.84
2023-02-16T21:03:31.500Z,59.17
2023-02-16T21:06:07.152Z,59.63
2023-02-16T21:08:34.621Z,59.38
2023-02-16T21:11:13.801Z,59.78
2023-02-16T21:13:43.565Z,59.58
2023-02-16T21:16:16.732Z,59.56
2023-02-16T21:18:48.537Z,59.75
2023-02-16T21:21:18.922Z,59.35
2023-02-16T21:23:56.318Z,59.46
2023-02-16T21:26:35.293Z,59.38
2023-02-16T21:29:07.383Z,59.32
2023-02-16T21:31:43.829Z,59.18
2023-02-16T21:34:24.169Z,59.24
2023-02-16T21:37:03.705Z,59.26
2023-02-16T21:39:59.530Z,58.89
2023-02-16T21:42:43.679Z,59.09
2023-02-16T21:45:25.623Z,59.30
2023-02-16T21:48:16.305Z,59.08
2023-02-16T21:50:46.428Z,59.47
2023-02-16T21:53:19.936Z,59.39
2023-02-16T21:56:06.073Z,58.90
2023-02-16T21:58:39.382Z,59.03
2023-02-16T22:01:21.940Z,58.74
2023-02-16T22:04:01.591Z,59.08
2023-02-16T22:06:45.111Z,58.49
2023-02-16T22:09:23.719Z,58.97
2023-02-16T22:12:03.358Z,58.40
2023-02-16T22:14:34.259Z,58.42
2023-02-16T22:17:12.121Z,58.73
2023-02-16T22:19:50.045Z,59.10
2023-02-16T22:22:40.033Z,58.95
2023-02-16T22:25:08.426Z,59.33
2023-02-16T22:27:44.874Z,59.18
2023-02-16T22:30:17.818Z,59.29
2023-02-16T22:32:51.490Z,59.22
2023-02-16T22:35:20.561Z,59.37
2023-02-16T22:37:47.313Z,59.45
2023-02-16T22:40:20.041Z,59.56
2023-02-16T22:42:49.246Z,59.38
2023-02-16T22:45:16.033Z,59.32
2023-02-16T22:47:43.101Z,59.17
2023-02-16T22:50:15.180Z,59.14
2023-02-16T22:52:44.681Z,59.20
2023-02-16T22:55:16.973Z,59.31
2023-02-16T22:57:43.775Z,59.37
2023-02-16T23:00:16.152Z,59.38
2023-02-16T23:02:45.914Z,59.39
2023-02-16T23:05:15.025Z,59.54
2023-02-16T23:07:41.720Z,59.70
2023-02-16T23:10:08.731Z,59.82
2023-02-16T23:12:39.792Z,60.84
2023-02-16T23:15:11.443Z,60.79
2023-02-16T23:17:40.925Z,60.62
2023-02-16T23:20:12.510Z,60.96
2023-02-16T23:22:39.895Z,60.38
2023-02-16T23:25:26.002Z,60.16
2023-02-16T23:27:53.674Z,60.53
2023-02-16T23:30:24.218Z,60.34
2023-02-16T23:32:51.083Z,60.63
2023-02-16T23:35:20.317Z,60.84
2023-02-16T23:37:47.008Z,60.64
2023-02-16T23:40:17.706Z,61.00
2023-02-16T23:42:44.835Z,60.95
2023-02-16T23:45:14.098Z,61.17
2023-02-16T23:47:46.484Z,61.39
2023-02-16T23:50:13.291Z,60.98
2023-02-16T23:52:40.887Z,61.12
2023-02-16T23:55:08.506Z,60.94
2023-02-16T23:57:38.120Z,61.22
